Sertaozinho, Brazil
Current Conditions -  °F | °C
As of 6:00 PM on Saturday 25 Oct 2014 (Local Time) from SBRP Reporting Station
Light Rain Light Rain  
Wind Chill: 70°   Ceiling: 1100
Heat Index: 70°   Visibility: 2.5mi
Dew Point: 64°   Wind: 2mph
Humidity: 83%   Direction: 340°NNW
Pressure: 29.97"   Gusts: NA
Location:  21.14°S, 47.99°W
Report Text: SBRP 252000Z 34002KT 4000 -RA BKN011 OVC090 21/18 Q1015
Loading
Personal Weather Stations






























Interactive Weather Map
Tropical Storm Tracking
New forecast layout! Learn more

10-Day Weather Forecast

Advertisements
Track Severe Weather on mobile